Time;durP1;ratioP1;P1;durP2;ratioP2;P2;SDS_P1;SDS_P2;PMS_P1;PMS_P2;Temp;Humidity;BMP_temperature;BMP_pressure;BME280_temperature;BME280_humidity;BME280_pressure;Samples;Min_cycle;Max_cycle;Signal;HPM_P1;HPM_P2
2022/08/31 00:07:04;;;;;;;3.35;2.47;;;;;;;22.54;61.56;96843.31;10544419;28;20059;-26
2022/08/31 00:12:04;;;;;;;2.30;2.10;;;;;;;22.54;60.61;96837.34;10544759;28;20114;-26
2022/08/31 00:17:05;;;;;;;2.47;2.00;;;;;;;22.52;60.96;96842.50;10552664;28;20028;-26
2022/08/31 00:22:05;;;;;;;4.85;2.60;;;;;;;22.50;60.57;96841.66;10547611;28;20031;-27
2022/08/31 00:27:05;;;;;;;3.97;3.30;;;;;;;22.67;64.49;96837.19;10543622;28;20055;-26
2022/08/31 00:32:06;;;;;;;3.40;3.10;;;;;;;22.69;64.47;96832.88;10534919;28;20043;-26
2022/08/31 00:37:06;;;;;;;3.07;2.77;;;;;;;22.63;62.89;96837.22;10532503;28;20036;-27
2022/08/31 00:42:07;;;;;;;4.87;3.20;;;;;;;22.60;62.89;96843.22;10540840;28;20066;-26
2022/08/31 00:47:09;;;;;;;3.30;2.97;;;;;;;22.56;61.30;96841.56;10546617;28;20039;-26
2022/08/31 00:52:16;;;;;;;3.13;2.67;;;;;;;22.56;62.20;96851.78;10533793;28;20039;-27
2022/08/31 00:57:17;;;;;;;4.03;3.03;;;;;;;22.51;62.55;96829.75;10544416;28;20036;-27
2022/08/31 01:02:18;;;;;;;3.20;2.90;;;;;;;22.56;62.79;96848.41;10531774;28;20028;-27
2022/08/31 01:07:18;;;;;;;3.45;3.08;;;;;;;22.53;62.64;96841.63;10540271;28;20039;-27
2022/08/31 01:12:19;;;;;;;6.00;3.80;;;;;;;22.69;64.62;96837.13;10543482;28;20408;-26
2022/08/31 01:17:20;;;;;;;3.80;3.50;;;;;;;22.65;64.58;96849.09;10541201;28;20039;-26
2022/08/31 01:22:37;;;;;;;4.95;3.35;;;;;;;22.58;64.25;96855.16;10541165;28;20130;-27
2022/08/31 01:27:38;;;;;;;3.88;2.53;;;;;;;22.55;62.25;96850.09;10541193;28;20032;-28
2022/08/31 01:32:39;;;;;;;3.22;2.67;;;;;;;22.54;61.68;96843.31;10530814;28;20028;-26
2022/08/31 01:37:39;;;;;;;2.90;2.60;;;;;;;22.52;62.46;96855.25;10548847;28;20188;-26
2022/08/31 01:42:41;;;;;;;6.15;2.92;;;;;;;22.50;61.27;96845.94;10536806;28;20396;-27
2022/08/31 01:47:42;;;;;;;3.63;3.10;;;;;;;22.50;61.33;96844.19;10540844;28;20043;-26
2022/08/31 01:52:43;;;;;;;4.30;3.90;;;;;;;22.54;64.06;96835.66;10534141;28;20031;-27
2022/08/31 01:57:43;;;;;;;3.45;3.10;;;;;;;22.67;64.47;96839.72;10525007;28;20038;-25
2022/08/31 02:03:07;;;;;;;5.30;3.78;;;;;;;22.59;64.25;96840.69;10494606;28;20048;-27
2022/08/31 02:08:09;;;;;;;4.63;2.90;;;;;;;22.55;63.20;96832.22;10541453;28;20457;-26
2022/08/31 02:13:10;;;;;;;3.40;2.78;;;;;;;22.53;63.09;96828.88;10537476;28;20042;-26
2022/08/31 02:18:10;;;;;;;3.35;3.00;;;;;;;22.51;63.03;96825.50;10536949;28;20032;-27
2022/08/31 02:23:11;;;;;;;3.93;2.87;;;;;;;22.51;62.55;96822.09;10540859;28;20036;-26
2022/08/31 02:28:12;;;;;;;3.83;2.77;;;;;;;22.47;62.44;96826.38;10535435;28;20118;-26
2022/08/31 02:33:13;;;;;;;4.18;3.13;;;;;;;22.48;62.14;96830.63;10539456;28;20555;-26
2022/08/31 02:38:16;;;;;;;3.88;3.38;;;;;;;22.49;64.76;96824.66;10541436;28;20035;-26
2022/08/31 02:43:17;;;;;;;3.80;3.00;;;;;;;22.64;64.43;96821.88;10548438;28;20035;-26
2022/08/31 02:48:18;;;;;;;3.30;3.00;;;;;;;22.55;64.20;96829.69;10546780;28;20040;-26
2022/08/31 02:53:21;;;;;;;3.10;2.67;;;;;;;22.52;63.75;96821.22;10527926;28;20644;-26
2022/08/31 02:58:22;;;;;;;3.40;2.53;;;;;;;22.50;62.87;96823.78;10530823;28;20487;-27
2022/08/31 03:03:22;;;;;;;3.07;2.67;;;;;;;22.44;62.33;96811.13;10530122;28;20044;-27
2022/08/31 03:08:23;;;;;;;4.47;2.53;;;;;;;22.44;62.24;96806.03;10539418;28;20695;-27
2022/08/31 03:13:24;;;;;;;3.75;2.60;;;;;;;22.46;62.25;96804.31;10530267;28;20031;-26
2022/08/31 03:18:25;;;;;;;2.85;2.55;;;;;;;22.44;62.24;96805.19;10542395;28;20429;-27
2022/08/31 03:23:25;;;;;;;3.20;2.90;;;;;;;22.49;64.35;96799.13;10539814;28;20038;-27
2022/08/31 03:28:26;;;;;;;3.50;2.97;;;;;;;22.62;64.07;96785.34;10535127;28;20052;-29
2022/08/31 03:33:59;;;;;;;3.55;2.78;;;;;;;22.50;63.67;96790.63;10544007;28;20555;-26
2022/08/31 03:38:59;;;;;;;3.60;2.80;;;;;;;22.46;62.98;96785.59;10552485;28;20020;-26
2022/08/31 03:44:04;;;;;;;3.72;2.42;;;;;;;22.48;63.10;96781.31;10536472;28;20281;-27
2022/08/31 03:49:06;;;;;;;3.38;2.60;;;;;;;22.43;62.79;96777.97;10535859;28;20650;-27
2022/08/31 03:54:07;;;;;;;3.65;1.90;;;;;;;22.45;63.09;96782.19;10540352;28;20055;-26
2022/08/31 03:59:07;;;;;;;2.27;2.00;;;;;;;22.40;63.32;96773.72;10537002;28;20028;-27
2022/08/31 04:04:30;;;;;;;3.42;2.00;;;;;;;22.40;62.17;96763.53;10541944;28;20290;-26
2022/08/31 04:10:07;;;;;;;2.33;2.13;;;;;;;22.56;63.48;96753.97;10532267;28;20051;-27
2022/08/31 04:15:27;;;;;;;4.03;1.92;;;;;;;22.52;63.35;96760.84;10545854;28;20521;-26
2022/08/31 04:20:46;;;;;;;1.75;1.65;;;;;;;22.41;62.85;96783.09;10540854;28;20036;-27
2022/08/31 04:25:47;;;;;;;2.20;1.67;;;;;;;22.40;63.13;96786.47;10540912;28;20434;-26
2022/08/31 04:30:47;;;;;;;4.30;2.33;;;;;;;22.36;62.05;96795.06;10543007;28;20043;-27
2022/08/31 04:35:49;;;;;;;1.88;1.63;;;;;;;22.38;62.02;96803.53;10534758;28;20031;-27
2022/08/31 04:40:49;;;;;;;3.58;2.00;;;;;;;22.41;61.51;96808.59;10549910;28;20021;-26
2022/08/31 04:45:50;;;;;;;4.07;2.00;;;;;;;22.38;61.22;96811.19;10529693;28;20038;-28
2022/08/31 04:50:59;;;;;;;4.53;1.63;;;;;;;22.43;62.68;96816.25;10531818;28;20407;-27
2022/08/31 04:56:06;;;;;;;3.65;1.60;;;;;;;22.48;63.35;96828.06;10541774;28;20024;-27
2022/08/31 05:01:16;;;;;;;3.78;1.90;;;;;;;22.46;62.24;96827.25;10536246;28;20035;-27
2022/08/31 05:06:49;;;;;;;3.97;1.63;;;;;;;22.41;61.86;96835.84;10507976;28;20106;-26
2022/08/31 05:11:52;;;;;;;1.77;1.63;;;;;;;22.40;60.70;96844.34;10544470;28;20028;-28
2022/08/31 05:16:52;;;;;;;1.67;1.58;;;;;;;22.34;60.75;96840.16;10548307;28;20032;-27
2022/08/31 05:21:54;;;;;;;2.95;1.70;;;;;;;22.33;60.51;96856.31;10537476;28;20028;-26
2022/08/31 05:26:56;;;;;;;2.65;2.15;;;;;;;22.33;60.62;96858.84;10538091;28;20032;-27
2022/08/31 05:31:57;;;;;;;3.63;2.55;;;;;;;22.31;60.85;96870.78;10527223;28;20028;-27
2022/08/31 05:36:57;;;;;;;2.50;1.50;;;;;;;22.34;63.06;96883.53;10540489;28;20035;-27
2022/08/31 05:41:58;;;;;;;1.83;1.48;;;;;;;22.44;62.86;96887.69;10537525;28;20024;-27
2022/08/31 05:46:58;;;;;;;1.70;1.58;;;;;;;22.37;62.13;96886.03;10538926;28;20035;-24
2022/08/31 05:52:00;;;;;;;3.53;1.53;;;;;;;22.32;61.09;96882.69;10527807;28;20479;-26
2022/08/31 05:57:02;;;;;;;1.88;1.50;;;;;;;22.28;61.01;96893.81;10533375;28;20277;-26
2022/08/31 06:02:03;;;;;;;2.40;2.13;;;;;;;22.26;61.04;96892.97;10534909;28;20039;-27
2022/08/31 06:07:07;;;;;;;1.92;1.65;;;;;;;22.24;60.98;96892.13;10536286;28;20112;-26
2022/08/31 06:12:18;;;;;;;1.80;1.70;;;;;;;22.23;61.25;96890.44;10534061;28;20036;-27
2022/08/31 06:17:18;;;;;;;2.53;2.28;;;;;;;22.21;60.91;96899.84;10538625;28;20032;-27
2022/08/31 06:22:19;;;;;;;6.05;1.65;;;;;;;22.36;62.93;96899.66;10535911;28;20024;-26
2022/08/31 06:27:20;;;;;;;1.80;1.63;;;;;;;22.52;62.49;96902.88;10537304;28;20384;-27
2022/08/31 06:32:22;;;;;;;3.28;1.23;;;;;;;22.43;62.18;96911.50;10532411;28;20503;-27
2022/08/31 06:37:34;;;;;;;3.65;1.63;;;;;;;22.43;62.57;96915.75;10539488;28;20024;-26
2022/08/31 06:42:57;;;;;;;3.90;1.77;;;;;;;22.37;62.33;96924.31;10527432;28;20063;-26
2022/08/31 06:48:04;;;;;;;3.90;2.03;;;;;;;22.33;61.34;96917.53;10540853;28;20039;-27
2022/08/31 06:53:04;;;;;;;3.00;1.55;;;;;;;22.29;61.13;96922.69;10540238;28;20064;-27
2022/08/31 06:58:28;;;;;;;2.70;1.60;;;;;;;22.22;60.85;96921.94;10544039;28;20123;-26
2022/08/31 07:03:34;;;;;;;1.42;1.30;;;;;;;22.21;61.11;96915.13;10553831;28;20036;-26
2022/08/31 07:08:37;;;;;;;2.25;1.60;;;;;;;22.33;61.86;96914.97;10542950;28;20036;-29
2022/08/31 07:13:38;;;;;;;1.73;1.58;;;;;;;22.37;61.73;96921.75;10532597;28;20039;-29
2022/08/31 07:18:40;;;;;;;2.22;1.48;;;;;;;22.25;61.39;96911.72;10535980;28;20372;-28
2022/08/31 07:23:42;;;;;;;1.65;1.55;;;;;;;22.23;61.25;96904.94;10542257;28;20119;-28
2022/08/31 07:28:52;;;;;;;6.95;3.00;;;;;;;22.23;60.84;96912.59;10541013;28;20048;-28
2022/08/31 07:33:55;;;;;;;2.53;1.98;;;;;;;22.20;60.70;96908.34;10535715;28;20583;-29
2022/08/31 07:44:21;;;;;;;3.15;1.85;;;;;;;22.26;60.37;96915.94;10536812;28;20130;-29
2022/08/31 07:49:22;;;;;;;3.03;2.00;;;;;;;22.29;60.24;96927.78;10540905;28;20040;-29
2022/08/31 07:54:46;;;;;;;3.35;1.90;;;;;;;22.47;61.22;96925.91;10540015;28;20040;-30
2022/08/31 08:00:00;;;;;;;4.10;2.70;;;;;;;22.46;60.94;96929.31;10537110;28;20063;-29
2022/08/31 08:05:00;;;;;;;2.92;2.38;;;;;;;22.34;61.06;96936.25;10524941;28;20028;-29
2022/08/31 08:10:20;;;;;;;6.15;2.67;;;;;;;22.32;61.51;96938.81;10536489;28;20652;-28
2022/08/31 08:15:20;;;;;;;3.05;1.88;;;;;;;22.29;61.53;96943.97;10540561;28;20420;-28
2022/08/31 08:20:41;;;;;;;2.63;2.22;;;;;;;22.27;61.56;96945.69;10547019;28;20034;-28
2022/08/31 08:25:41;;;;;;;3.15;2.00;;;;;;;22.27;61.29;96945.69;10542332;28;20032;-29
2022/08/31 08:30:59;;;;;;;8.60;2.50;;;;;;;22.39;61.59;96950.63;10531422;28;20028;-28
2022/08/31 08:36:06;;;;;;;18.52;3.67;;;;;;;22.44;61.52;96953.16;10535357;28;20036;-29
2022/08/31 08:41:11;;;;;;;;;;;;;;;22.58;61.49;96944.47;10540179;28;20493;-28
2022/08/31 08:46:13;;;;;;;2.38;2.15;;;;;;;22.27;61.36;96948.25;10540222;28;19918;-29
2022/08/31 08:51:17;;;;;;;2.00;1.60;;;;;;;22.30;60.90;96948.19;10537172;28;20035;-28
2022/08/31 08:56:31;;;;;;;2.97;1.77;;;;;;;22.28;60.80;96951.63;10541472;28;20429;-28
2022/08/31 09:01:34;;;;;;;4.85;2.00;;;;;;;22.28;60.93;96961.81;10532947;28;20042;-28
2022/08/31 09:07:21;;;;;;;2.85;1.92;;;;;;;22.28;60.78;96962.69;10532780;28;20028;-28
2022/08/31 09:12:29;;;;;;;3.50;2.05;;;;;;;22.26;60.71;96959.31;10507520;28;20131;-28
2022/08/31 09:17:39;;;;;;;3.75;1.70;;;;;;;22.24;60.72;96963.56;10542457;28;20123;-29
2022/08/31 09:22:49;;;;;;;3.25;2.00;;;;;;;22.47;62.61;96969.28;10534318;28;20039;-26
2022/08/31 09:27:56;;;;;;;2.50;1.92;;;;;;;22.56;61.92;96964.06;10525947;28;20619;-28
2022/08/31 09:32:57;;;;;;;1.70;1.60;;;;;;;22.52;60.53;96961.56;10545649;28;20032;-26
2022/08/31 09:38:00;;;;;;;4.13;1.60;;;;;;;22.41;60.45;96979.56;10541826;28;20040;-26
2022/08/31 09:43:18;;;;;;;3.42;1.75;;;;;;;22.34;60.50;96977.94;10544740;28;20380;-26
2022/08/31 09:48:57;;;;;;;1.73;1.60;;;;;;;22.33;60.47;96981.31;10540325;28;20035;-26
2022/08/31 09:59:48;;;;;;;2.75;1.85;;;;;;;22.29;60.54;96983.91;10536108;28;20020;-25
2022/08/31 10:04:53;;;;;;;3.22;2.00;;;;;;;22.38;60.68;96979.56;10541006;28;20107;-25
2022/08/31 10:09:55;;;;;;;4.75;3.28;;;;;;;22.54;61.25;96976.00;10534924;28;20032;-26
2022/08/31 10:15:04;;;;;;;3.33;1.83;;;;;;;22.58;60.04;96961.50;10536685;28;20036;-26
2022/08/31 10:20:11;;;;;;;1.75;1.30;;;;;;;22.46;59.99;96954.84;10542223;28;20024;-26
2022/08/31 10:25:20;;;;;;;1.90;1.55;;;;;;;22.37;60.17;96960.03;10544966;28;20035;-26
2022/08/31 10:30:34;;;;;;;2.17;1.85;;;;;;;22.33;60.37;96958.34;10549531;28;20074;-27
2022/08/31 10:35:49;;;;;;;1.35;1.25;;;;;;;22.31;60.33;96952.44;10548028;28;20670;-26
2022/08/31 10:40:53;;;;;;;2.00;1.63;;;;;;;22.30;60.24;96950.75;10541971;28;20057;-27
2022/08/31 10:45:56;;;;;;;1.88;1.77;;;;;;;22.28;60.35;96949.91;10541213;28;20039;-26
2022/08/31 10:51:16;;;;;;;2.20;1.70;;;;;;;22.45;60.40;96945.50;10544537;28;20035;-26
2022/08/31 10:56:17;;;;;;;3.03;2.10;;;;;;;22.58;60.59;96936.81;10549891;28;20042;-26
2022/08/31 11:01:35;;;;;;;2.10;1.50;;;;;;;22.55;59.75;96926.66;10538557;28;20032;-27
2022/08/31 11:07:06;;;;;;;2.67;1.58;;;;;;;22.42;59.91;96919.19;10547218;28;20427;-26
2022/08/31 11:12:20;;;;;;;1.40;1.30;;;;;;;22.34;60.07;96916.69;10542478;28;20410;-26
2022/08/31 11:17:52;;;;;;;1.45;1.20;;;;;;;22.32;60.17;96904.81;10548293;28;20027;-27
2022/08/31 11:23:04;;;;;;;1.38;1.27;;;;;;;22.30;60.18;96904.81;10548103;28;20044;-26
2022/08/31 11:28:30;;;;;;;1.83;1.67;;;;;;;22.31;60.11;96892.94;10547310;28;20046;-26
2022/08/31 11:33:31;;;;;;;2.25;1.60;;;;;;;22.31;60.25;96883.56;10543788;28;20506;-26
2022/08/31 11:38:46;;;;;;;3.50;1.90;;;;;;;22.53;61.07;96879.91;10544774;28;20050;-26
2022/08/31 11:43:50;;;;;;;4.38;2.95;;;;;;;22.63;61.75;96884.00;10534917;28;20117;-26
2022/08/31 11:48:52;;;;;;;3.55;2.40;;;;;;;22.52;61.14;96882.47;10548492;28;20033;-26
2022/08/31 11:53:54;;;;;;;3.88;1.98;;;;;;;22.41;60.68;96877.50;10538475;28;20527;-27
2022/08/31 11:59:30;;;;;;;2.17;1.50;;;;;;;22.32;60.22;96864.00;10537670;28;20536;-26
2022/08/31 12:04:44;;;;;;;2.83;1.53;;;;;;;22.34;60.28;96865.69;10543058;28;20036;-26
2022/08/31 12:10:22;;;;;;;2.65;1.30;;;;;;;22.32;60.18;96867.38;10542155;28;20799;-26
2022/08/31 12:16:02;;;;;;;4.13;1.60;;;;;;;22.30;60.23;96869.09;10533843;28;20040;-26
2022/08/31 12:27:11;;;;;;;5.28;1.92;;;;;;;22.62;60.87;96867.03;10544255;28;20027;-27
2022/08/31 12:32:28;;;;;;;2.55;1.50;;;;;;;22.54;59.99;96875.63;10539472;28;20032;-26
2022/08/31 12:37:34;;;;;;;2.25;1.40;;;;;;;22.42;59.94;96876.66;10542908;28;20040;-26
2022/08/31 12:42:48;;;;;;;5.18;1.70;;;;;;;22.37;60.06;96870.72;10539526;28;20066;-27
2022/08/31 12:48:00;;;;;;;3.42;1.50;;;;;;;22.34;60.16;96868.22;10545538;28;20406;-27
2022/08/31 12:53:38;;;;;;;3.00;1.50;;;;;;;22.31;60.15;96870.78;10533039;28;20059;-27
2022/08/31 12:59:05;;;;;;;7.10;1.77;;;;;;;22.34;60.21;96867.38;10535593;28;20032;-27
2022/08/31 13:04:06;;;;;;;11.85;2.53;;;;;;;22.35;60.66;96852.06;10542688;28;20039;-27
2022/08/31 13:09:06;;;;;;;9.73;2.58;;;;;;;22.57;61.26;96853.47;10536602;28;20035;-27
2022/08/31 13:14:13;;;;;;;4.43;1.77;;;;;;;22.62;60.05;96856.81;10542512;28;20081;-27
2022/08/31 13:19:18;;;;;;;2.50;1.60;;;;;;;22.49;59.99;96852.72;10540088;28;20299;-27
2022/08/31 13:24:24;;;;;;;2.13;1.60;;;;;;;22.40;59.93;96850.25;10539207;28;20381;-26
2022/08/31 13:29:24;;;;;;;6.82;1.60;;;;;;;22.36;59.78;96848.63;10540441;28;20039;-26
2022/08/31 13:34:25;;;;;;;5.17;1.33;;;;;;;22.35;60.15;96841.84;10538690;28;20098;-27
2022/08/31 13:39:30;;;;;;;2.88;1.73;;;;;;;22.36;60.18;96835.88;10547032;28;20054;-26
2022/08/31 13:44:38;;;;;;;3.78;1.60;;;;;;;22.33;60.13;96830.78;10534967;28;20043;-27
2022/08/31 13:49:40;;;;;;;4.25;2.30;;;;;;;22.40;61.03;96816.28;10534657;28;20036;-27
2022/08/31 13:54:41;;;;;;;2.58;2.08;;;;;;;22.59;60.73;96810.94;10541717;28;20043;-27
2022/08/31 13:59:41;;;;;;;3.13;1.33;;;;;;;22.60;60.15;96802.41;10527467;28;20035;-27
2022/08/31 14:04:47;;;;;;;1.67;1.17;;;;;;;22.50;59.98;96813.56;10541007;28;20526;-27
2022/08/31 14:09:51;;;;;;;1.67;1.40;;;;;;;22.40;59.94;96819.66;10532415;28;20042;-28
2022/08/31 14:14:55;;;;;;;1.50;1.40;;;;;;;22.38;60.02;96826.50;10544256;28;20040;-27
2022/08/31 14:19:58;;;;;;;3.70;1.40;;;;;;;22.35;60.08;96826.53;10526680;28;20055;-27
2022/08/31 14:24:59;;;;;;;2.67;1.38;;;;;;;22.36;60.27;96827.38;10546472;28;20063;-27
2022/08/31 14:30:01;;;;;;;1.50;1.40;;;;;;;22.35;60.22;96826.53;10522879;28;20042;-27
2022/08/31 14:35:06;;;;;;;5.95;1.90;;;;;;;22.44;60.55;96808.59;10528749;28;20031;-27
2022/08/31 14:40:08;;;;;;;6.00;2.65;;;;;;;22.61;61.13;96814.28;10535758;28;20700;-27
2022/08/31 14:45:08;;;;;;;1.58;1.48;;;;;;;22.61;59.79;96814.28;10525392;28;20487;-27
2022/08/31 14:50:12;;;;;;;2.85;1.50;;;;;;;22.49;59.89;96811.91;10526773;28;20101;-27
2022/08/31 14:55:13;;;;;;;2.38;1.50;;;;;;;22.40;59.94;96809.44;10534465;28;20040;-27
2022/08/31 15:00:20;;;;;;;3.25;1.45;;;;;;;22.38;59.96;96805.22;10534035;28;20751;-27
2022/08/31 15:05:23;;;;;;;3.22;1.38;;;;;;;22.38;60.11;96817.97;10526670;28;20495;-27
2022/08/31 15:10:24;;;;;;;2.25;1.65;;;;;;;22.33;60.09;96802.72;10541197;28;20514;-27
2022/08/31 15:15:24;;;;;;;5.47;1.75;;;;;;;22.34;60.32;96808.69;10537779;28;20143;-27
2022/08/31 15:20:25;;;;;;;6.53;2.50;;;;;;;22.47;61.09;96805.97;10541147;28;20384;-27
2022/08/31 15:25:26;;;;;;;5.03;2.20;;;;;;;22.61;61.09;96806.63;10544197;28;20281;-28
2022/08/31 15:30:26;;;;;;;7.78;1.92;;;;;;;22.62;59.77;96812.56;10531926;28;20031;-27
2022/08/31 15:35:30;;;;;;;4.35;1.73;;;;;;;22.52;59.83;96813.56;10525388;28;20041;-27
2022/08/31 15:40:33;;;;;;;2.78;1.27;;;;;;;22.45;59.85;96807.72;10538660;28;20031;-27
2022/08/31 15:45:37;;;;;;;1.65;1.30;;;;;;;22.42;59.90;96805.22;10527721;28;20044;-27
2022/08/31 15:50:46;;;;;;;1.55;1.45;;;;;;;22.40;59.78;96799.25;10527769;28;20120;-27
2022/08/31 15:55:47;;;;;;;1.92;1.83;;;;;;;22.39;59.86;96802.66;10539677;28;20099;-27
2022/08/31 16:00:49;;;;;;;4.65;3.10;;;;;;;22.42;61.32;96801.81;10542992;28;20054;-26
2022/08/31 16:05:50;;;;;;;8.05;2.42;;;;;;;22.49;60.48;96788.94;10539862;28;20104;-27
2022/08/31 16:10:50;;;;;;;6.03;2.80;;;;;;;22.65;61.18;96787.00;10532272;28;20388;-28
2022/08/31 16:15:51;;;;;;;3.33;2.20;;;;;;;22.63;60.17;96778.50;10521869;28;20044;-27
2022/08/31 16:20:51;;;;;;;6.57;2.38;;;;;;;22.52;60.13;96767.63;10544654;28;20075;-28
2022/08/31 16:25:52;;;;;;;8.17;2.27;;;;;;;22.47;60.09;96770.25;10537185;28;20062;-27
2022/08/31 16:30:53;;;;;;;8.30;2.65;;;;;;;22.41;60.41;96767.78;10541926;28;20474;-27
2022/08/31 16:35:53;;;;;;;6.93;3.90;;;;;;;22.41;59.93;96767.78;10532516;28;20036;-27
2022/08/31 16:40:59;;;;;;;7.73;2.73;;;;;;;22.35;59.87;96761.91;10541548;28;20035;-28
2022/08/31 16:46:03;;;;;;;5.15;2.40;;;;;;;22.38;59.81;96765.25;10538506;28;20795;-27
2022/08/31 16:51:09;;;;;;;3.88;2.65;;;;;;;22.53;57.52;96767.63;10537216;28;20032;-28
2022/08/31 16:56:10;;;;;;;6.63;2.42;;;;;;;22.61;57.05;96765.78;10548502;28;20047;-28
2022/08/31 17:01:13;;;;;;;4.22;2.47;;;;;;;22.56;56.53;96772.66;10549939;28;20115;-28
2022/08/31 17:06:14;;;;;;;3.58;2.28;;;;;;;22.48;57.45;96771.94;10529632;28;20444;-28
2022/08/31 17:11:25;;;;;;;4.03;2.45;;;;;;;22.45;58.33;96766.91;10541814;28;20032;-27
2022/08/31 17:16:28;;;;;;;3.30;2.38;;;;;;;22.41;58.18;96775.44;10531184;28;20031;-28
2022/08/31 17:21:30;;;;;;;2.97;2.38;;;;;;;22.37;59.09;96768.69;10522082;28;20032;-29
2022/08/31 17:26:33;;;;;;;8.68;2.85;;;;;;;22.40;58.62;96772.91;10529438;28;20425;-28
2022/08/31 17:31:40;;;;;;;2.15;1.83;;;;;;;22.37;59.03;96778.03;10529657;28;20036;-28
2022/08/31 17:36:44;;;;;;;2.97;2.17;;;;;;;22.49;57.88;96773.63;10531750;28;20259;-28
2022/08/31 17:41:47;;;;;;;3.17;2.28;;;;;;;22.53;58.02;96774.41;10544884;28;20035;-29
2022/08/31 17:46:50;;;;;;;3.20;2.58;;;;;;;22.46;58.81;96783.03;10531550;28;20077;-30
2022/08/31 17:51:53;;;;;;;2.85;1.67;;;;;;;22.37;59.67;96791.63;10523351;28;20040;-28
2022/08/31 17:56:54;;;;;;;2.17;1.90;;;;;;;22.34;59.36;96799.34;10525435;28;20148;-28
2022/08/31 18:01:58;;;;;;;2.60;1.88;;;;;;;22.28;58.89;96798.56;10539960;28;20032;-28
2022/08/31 18:07:00;;;;;;;8.00;1.67;;;;;;;22.31;59.27;96799.38;10525825;28;20054;-28
2022/08/31 18:12:01;;;;;;;1.55;1.23;;;;;;;22.30;59.38;96813.00;10525628;28;20043;-28
2022/08/31 18:17:03;;;;;;;2.00;1.83;;;;;;;22.31;59.38;96812.13;10550827;28;20419;-29
2022/08/31 18:22:05;;;;;;;3.58;2.70;;;;;;;22.55;58.67;96818.66;10535878;28;20032;-30
2022/08/31 18:27:08;;;;;;;3.65;2.70;;;;;;;22.62;58.46;96831.28;10527159;28;20399;-29
2022/08/31 18:32:09;;;;;;;1.55;1.45;;;;;;;22.51;58.88;96830.59;10547418;28;20027;-29
2022/08/31 18:37:11;;;;;;;1.75;1.60;;;;;;;22.42;59.34;96837.53;10527648;28;20035;-30
2022/08/31 18:47:31;;;;;;;1.73;1.63;;;;;;;22.32;59.55;96846.97;10531581;28;20492;-29
2022/08/31 18:52:32;;;;;;;1.70;1.33;;;;;;;22.30;59.68;96851.25;10532785;28;20035;-30
2022/08/31 18:57:33;;;;;;;3.22;2.22;;;;;;;22.35;59.90;96863.94;10527434;28;20048;-28
2022/08/31 19:02:39;;;;;;;3.20;2.10;;;;;;;22.32;59.64;96862.28;10541417;28;20032;-28
2022/08/31 19:07:40;;;;;;;3.83;2.53;;;;;;;22.54;59.18;96855.22;10526857;28;20071;-29
2022/08/31 19:12:44;;;;;;;3.42;3.00;;;;;;;22.55;59.09;96856.94;10539089;28;20033;-29
2022/08/31 19:17:48;;;;;;;1.70;1.52;;;;;;;22.46;59.13;96855.31;10540780;28;20046;-28
2022/08/31 19:22:48;;;;;;;2.83;2.30;;;;;;;22.39;59.33;96869.00;10541515;28;20036;-29
2022/08/31 19:27:50;;;;;;;2.40;1.55;;;;;;;22.34;59.48;96847.81;10541008;28;20036;-29
2022/08/31 19:32:52;;;;;;;1.45;1.35;;;;;;;22.32;59.58;96851.25;10544488;28;20085;-28
2022/08/31 19:37:54;;;;;;;1.73;1.63;;;;;;;22.29;59.68;96857.22;10539981;28;20063;-29
2022/08/31 19:42:58;;;;;;;2.97;1.45;;;;;;;22.29;59.58;96856.38;10542293;28;20916;-28
2022/08/31 19:47:58;;;;;;;3.17;2.55;;;;;;;22.36;59.82;96848.63;10547589;28;20039;-29
2022/08/31 19:52:59;;;;;;;5.60;3.00;;;;;;;22.55;59.14;96850.09;10542528;28;20439;-28
2022/08/31 19:57:59;;;;;;;5.40;3.03;;;;;;;22.54;59.08;96847.56;10532672;28;20032;-29
2022/08/31 20:03:00;;;;;;;3.03;2.30;;;;;;;22.45;59.26;96838.34;10548365;28;20035;-28
2022/08/31 20:08:00;;;;;;;4.55;2.13;;;;;;;22.33;59.63;96838.44;10545925;28;20114;-29
2022/08/31 20:13:01;;;;;;;1.80;1.70;;;;;;;22.31;59.61;96845.28;10549675;28;20526;-28
2022/08/31 20:18:01;;;;;;;3.63;2.00;;;;;;;22.32;59.64;96856.34;10546477;27;20038;-28
2022/08/31 20:23:02;;;;;;;2.57;2.30;;;;;;;22.28;59.75;96855.53;10544188;28;20034;-28
2022/08/31 20:28:02;;;;;;;2.47;1.92;;;;;;;22.28;59.45;96850.44;10548440;28;20391;-29
2022/08/31 20:33:03;;;;;;;4.10;2.87;;;;;;;22.33;59.27;96832.53;10555863;28;20036;-29
2022/08/31 20:38:04;;;;;;;4.18;3.03;;;;;;;22.50;58.59;96830.63;10542192;28;20147;-28
2022/08/31 20:43:09;;;;;;;3.33;3.00;;;;;;;22.45;58.89;96828.13;10557724;28;20039;-29
2022/08/31 20:53:29;;;;;;;3.67;2.10;;;;;;;22.30;59.44;96828.31;10555470;28;20040;-29
2022/08/31 20:58:29;;;;;;;1.87;1.77;;;;;;;22.29;59.61;96830.84;10544989;28;20036;-28
2022/08/31 21:03:30;;;;;;;2.60;2.13;;;;;;;22.29;59.61;96828.31;10558399;28;20110;-28
2022/08/31 21:08:30;;;;;;;3.47;2.97;;;;;;;22.28;59.28;96824.94;10547477;28;20063;-30
2022/08/31 21:13:32;;;;;;;2.87;2.00;;;;;;;22.26;59.43;96825.81;10546760;28;20298;-28
2022/08/31 21:18:33;;;;;;;4.47;3.10;;;;;;;22.36;58.54;96825.69;10554065;28;20056;-28
2022/08/31 21:23:36;;;;;;;4.22;3.40;;;;;;;22.48;58.00;96827.25;10549861;28;20027;-28
2022/08/31 21:28:37;;;;;;;6.45;3.30;;;;;;;22.38;58.54;96821.38;10536654;28;20059;-29
2022/08/31 21:33:38;;;;;;;3.53;3.05;;;;;;;22.28;58.67;96809.63;10542335;28;20032;-28
2022/08/31 21:38:40;;;;;;;3.33;2.80;;;;;;;22.29;58.65;96811.31;10527869;28;20499;-28
2022/08/31 21:43:40;;;;;;;6.10;3.38;;;;;;;22.27;59.16;96802.84;10552793;28;20036;-28
2022/08/31 21:48:43;;;;;;;6.73;3.57;;;;;;;22.27;58.66;96797.75;10552414;28;20032;-28
2022/08/31 21:53:47;;;;;;;4.10;3.20;;;;;;;22.27;58.58;96791.78;10551203;28;20142;-28
2022/08/31 21:58:47;;;;;;;4.22;2.90;;;;;;;22.27;58.23;96800.28;10534171;28;20349;-28
2022/08/31 22:03:52;;;;;;;7.67;4.23;;;;;;;22.35;57.72;96795.06;10552187;28;20028;-28
2022/08/31 22:08:58;;;;;;;3.90;3.42;;;;;;;22.47;57.26;96800.06;10544542;28;20717;-29
2022/08/31 22:14:00;;;;;;;5.80;3.80;;;;;;;22.33;57.34;96792.53;10543175;28;20403;-29
2022/08/31 22:19:01;;;;;;;4.10;3.65;;;;;;;22.27;58.01;96805.38;10552910;28;20036;-30
2022/08/31 22:24:06;;;;;;;7.97;3.65;;;;;;;22.25;57.91;96799.47;10553007;28;20398;-27
2022/08/31 22:29:09;;;;;;;6.00;3.57;;;;;;;22.22;57.73;96804.59;10542001;28;20047;-28
2022/08/31 22:34:10;;;;;;;4.53;4.13;;;;;;;22.23;57.86;96813.09;10557356;28;20104;-28
2022/08/31 22:39:12;;;;;;;5.68;4.35;;;;;;;22.22;57.95;96804.59;10552035;28;20028;-28
2022/08/31 22:44:16;;;;;;;6.25;3.78;;;;;;;22.22;57.97;96806.31;10560957;28;20529;-28
2022/08/31 22:49:16;;;;;;;4.32;3.80;;;;;;;22.32;57.14;96816.34;10554503;28;20046;-28
2022/08/31 22:54:19;;;;;;;5.87;3.90;;;;;;;22.40;56.59;96814.53;10561318;28;20527;-28
2022/08/31 22:59:26;;;;;;;4.63;4.20;;;;;;;22.29;56.94;96815.56;10557050;28;20322;-29
2022/08/31 23:04:29;;;;;;;4.97;3.97;;;;;;;22.23;57.41;96811.38;10554514;28;20031;-30
2022/08/31 23:09:32;;;;;;;3.95;3.53;;;;;;;22.21;57.39;96802.91;10558731;28;20438;-29
2022/08/31 23:14:32;;;;;;;4.65;3.58;;;;;;;22.18;57.79;96802.09;10556774;28;20028;-29
2022/08/31 23:19:36;;;;;;;4.07;3.27;;;;;;;22.18;57.41;96800.41;10552357;28;20651;-29
2022/08/31 23:24:39;;;;;;;4.97;4.47;;;;;;;22.17;57.59;96798.72;10562470;28;20059;-29
2022/08/31 23:29:46;;;;;;;8.35;3.70;;;;;;;22.16;57.40;96794.47;10534527;28;20063;-29
2022/08/31 23:34:49;;;;;;;4.93;3.45;;;;;;;22.26;56.47;96780.75;10547630;28;20606;-29
2022/08/31 23:39:52;;;;;;;3.97;3.47;;;;;;;22.32;56.36;96775.53;10558320;28;20483;-29
2022/08/31 23:44:53;;;;;;;4.22;3.63;;;;;;;22.24;56.56;96771.44;10557721;28;20032;-29
2022/08/31 23:49:55;;;;;;;3.88;3.47;;;;;;;22.20;57.02;96770.63;10552422;28;20054;-28
2022/08/31 23:54:59;;;;;;;4.80;3.75;;;;;;;22.17;56.96;96765.56;10556721;28;20536;-27
